sensor_id;sensor_type;location;lat;lon;timestamp;P1;P2;P0
66195;PMS7003;75911;45.168;5.736;2024-03-02T00:02:13;4.00;3.00;2.00
66195;PMS7003;75911;45.168;5.736;2024-03-02T00:04:39;5.33;4.33;4.00
66195;PMS7003;75911;45.168;5.736;2024-03-02T00:07:04;5.00;5.00;3.67
66195;PMS7003;75911;45.168;5.736;2024-03-02T00:09:31;3.00;3.00;3.00
66195;PMS7003;75911;45.168;5.736;2024-03-02T00:11:57;3.00;3.00;3.00
66195;PMS7003;75911;45.168;5.736;2024-03-02T00:14:23;5.67;4.00;3.00
66195;PMS7003;75911;45.168;5.736;2024-03-02T00:16:49;4.67;3.00;3.00
66195;PMS7003;75911;45.168;5.736;2024-03-02T00:19:16;3.00;3.00;3.00
66195;PMS7003;75911;45.168;5.736;2024-03-02T00:21:42;4.67;4.00;4.00
66195;PMS7003;75911;45.168;5.736;2024-03-02T00:24:31;4.00;4.00;3.00
66195;PMS7003;75911;45.168;5.736;2024-03-02T00:26:57;3.00;3.00;3.00
66195;PMS7003;75911;45.168;5.736;2024-03-02T00:29:23;3.00;3.00;3.00
66195;PMS7003;75911;45.168;5.736;2024-03-02T00:31:49;4.00;4.00;3.00
66195;PMS7003;75911;45.168;5.736;2024-03-02T00:34:15;4.67;3.67;3.33
66195;PMS7003;75911;45.168;5.736;2024-03-02T00:36:43;3.67;3.67;3.00
66195;PMS7003;75911;45.168;5.736;2024-03-02T00:39:11;6.00;4.33;3.33
66195;PMS7003;75911;45.168;5.736;2024-03-02T00:41:40;4.00;4.00;4.00
66195;PMS7003;75911;45.168;5.736;2024-03-02T00:44:09;4.00;4.00;3.00
66195;PMS7003;75911;45.168;5.736;2024-03-02T00:46:38;3.67;3.67;3.00
66195;PMS7003;75911;45.168;5.736;2024-03-02T00:51:35;5.50;5.50;5.25
66195;PMS7003;75911;45.168;5.736;2024-03-02T00:54:03;5.33;5.33;4.67
66195;PMS7003;75911;45.168;5.736;2024-03-02T00:56:29;4.25;4.25;3.75
66195;PMS7003;75911;45.168;5.736;2024-03-02T00:58:56;4.00;3.00;3.00
66195;PMS7003;75911;45.168;5.736;2024-03-02T01:01:21;6.25;5.00;4.25
66195;PMS7003;75911;45.168;5.736;2024-03-02T01:03:47;4.67;4.67;3.33
66195;PMS7003;75911;45.168;5.736;2024-03-02T01:06:13;6.75;6.00;5.00
66195;PMS7003;75911;45.168;5.736;2024-03-02T01:08:39;5.50;5.50;5.00
66195;PMS7003;75911;45.168;5.736;2024-03-02T01:11:05;5.75;5.25;4.75
66195;PMS7003;75911;45.168;5.736;2024-03-02T01:13:30;5.00;4.00;3.75
66195;PMS7003;75911;45.168;5.736;2024-03-02T01:15:56;4.00;4.00;4.00
66195;PMS7003;75911;45.168;5.736;2024-03-02T01:18:21;5.67;5.00;4.67
66195;PMS7003;75911;45.168;5.736;2024-03-02T01:20:47;6.00;6.00;5.00
66195;PMS7003;75911;45.168;5.736;2024-03-02T01:23:13;6.75;6.25;5.00
66195;PMS7003;75911;45.168;5.736;2024-03-02T01:25:38;7.67;5.67;4.33
66195;PMS7003;75911;45.168;5.736;2024-03-02T01:28:04;6.00;6.00;5.00
66195;PMS7003;75911;45.168;5.736;2024-03-02T01:30:30;5.00;5.00;4.00
66195;PMS7003;75911;45.168;5.736;2024-03-02T01:32:55;6.00;6.00;6.00
66195;PMS7003;75911;45.168;5.736;2024-03-02T01:35:21;8.00;7.00;5.25
66195;PMS7003;75911;45.168;5.736;2024-03-02T01:37:46;5.00;5.00;4.00
66195;PMS7003;75911;45.168;5.736;2024-03-02T01:40:11;6.00;6.00;5.00
66195;PMS7003;75911;45.168;5.736;2024-03-02T01:42:40;5.67;5.67;5.00
66195;PMS7003;75911;45.168;5.736;2024-03-02T01:45:05;4.67;4.67;4.00
66195;PMS7003;75911;45.168;5.736;2024-03-02T01:47:32;8.00;7.33;6.00
66195;PMS7003;75911;45.168;5.736;2024-03-02T01:49:57;7.33;6.00;5.67
66195;PMS7003;75911;45.168;5.736;2024-03-02T01:52:23;7.33;5.67;5.00
66195;PMS7003;75911;45.168;5.736;2024-03-02T01:54:49;7.00;7.00;6.00
66195;PMS7003;75911;45.168;5.736;2024-03-02T01:57:14;6.33;6.33;5.00
66195;PMS7003;75911;45.168;5.736;2024-03-02T01:59:40;5.00;5.00;4.33
66195;PMS7003;75911;45.168;5.736;2024-03-02T02:02:05;5.67;5.67;5.00
66195;PMS7003;75911;45.168;5.736;2024-03-02T02:04:30;4.00;3.00;3.00
66195;PMS7003;75911;45.168;5.736;2024-03-02T02:06:56;7.00;6.00;5.00
66195;PMS7003;75911;45.168;5.736;2024-03-02T02:09:21;7.00;7.00;5.00
66195;PMS7003;75911;45.168;5.736;2024-03-02T02:11:47;7.00;7.00;5.00
66195;PMS7003;75911;45.168;5.736;2024-03-02T02:14:12;7.67;6.00;6.00
66195;PMS7003;75911;45.168;5.736;2024-03-02T02:16:38;6.00;6.00;4.33
66195;PMS7003;75911;45.168;5.736;2024-03-02T02:19:03;7.67;7.00;6.00
66195;PMS7003;75911;45.168;5.736;2024-03-02T02:21:29;6.00;6.00;5.00
66195;PMS7003;75911;45.168;5.736;2024-03-02T02:23:54;7.00;7.00;5.75
66195;PMS7003;75911;45.168;5.736;2024-03-02T02:26:19;5.67;5.67;5.00
66195;PMS7003;75911;45.168;5.736;2024-03-02T02:28:45;6.00;6.00;5.00
66195;PMS7003;75911;45.168;5.736;2024-03-02T02:31:13;6.00;6.00;5.00
66195;PMS7003;75911;45.168;5.736;2024-03-02T02:33:39;6.33;6.33;5.33
66195;PMS7003;75911;45.168;5.736;2024-03-02T02:36:05;6.33;6.33;5.00
66195;PMS7003;75911;45.168;5.736;2024-03-02T02:38:30;7.00;7.00;5.25
66195;PMS7003;75911;45.168;5.736;2024-03-02T02:40:58;8.67;8.00;6.00
66195;PMS7003;75911;45.168;5.736;2024-03-02T02:43:23;6.00;6.00;5.00
66195;PMS7003;75911;45.168;5.736;2024-03-02T02:45:48;7.00;7.00;5.00
66195;PMS7003;75911;45.168;5.736;2024-03-02T02:48:14;8.00;6.33;5.00
66195;PMS7003;75911;45.168;5.736;2024-03-02T02:50:39;7.33;6.00;5.00
66195;PMS7003;75911;45.168;5.736;2024-03-02T02:53:05;8.25;7.75;6.00
66195;PMS7003;75911;45.168;5.736;2024-03-02T02:55:31;9.00;9.00;6.00
66195;PMS7003;75911;45.168;5.736;2024-03-02T02:57:56;7.00;7.00;6.00
66195;PMS7003;75911;45.168;5.736;2024-03-02T03:00:21;7.00;7.00;6.00
66195;PMS7003;75911;45.168;5.736;2024-03-02T03:02:48;7.00;7.00;6.00
66195;PMS7003;75911;45.168;5.736;2024-03-02T03:05:14;8.33;5.67;5.00
66195;PMS7003;75911;45.168;5.736;2024-03-02T03:07:40;6.00;6.00;5.00
66195;PMS7003;75911;45.168;5.736;2024-03-02T03:10:07;9.00;8.00;6.00
66195;PMS7003;75911;45.168;5.736;2024-03-02T03:12:33;9.67;7.00;6.00
66195;PMS7003;75911;45.168;5.736;2024-03-02T03:15:02;8.25;7.50;6.25
66195;PMS7003;75911;45.168;5.736;2024-03-02T03:17:29;7.67;6.67;5.00
66195;PMS7003;75911;45.168;5.736;2024-03-02T03:19:54;7.50;6.50;6.00
66195;PMS7003;75911;45.168;5.736;2024-03-02T03:22:20;7.50;7.00;6.00
66195;PMS7003;75911;45.168;5.736;2024-03-02T03:24:45;6.50;6.50;6.00
66195;PMS7003;75911;45.168;5.736;2024-03-02T03:27:10;6.00;6.00;5.33
66195;PMS7003;75911;45.168;5.736;2024-03-02T03:29:36;8.00;7.00;5.67
66195;PMS7003;75911;45.168;5.736;2024-03-02T03:32:02;7.00;6.00;5.25
66195;PMS7003;75911;45.168;5.736;2024-03-02T03:34:28;8.00;6.00;4.67
66195;PMS7003;75911;45.168;5.736;2024-03-02T03:36:54;6.67;6.00;4.67
66195;PMS7003;75911;45.168;5.736;2024-03-02T03:39:19;7.00;7.00;6.33
66195;PMS7003;75911;45.168;5.736;2024-03-02T03:41:45;7.75;7.25;6.75
66195;PMS7003;75911;45.168;5.736;2024-03-02T03:44:10;7.50;7.50;5.75
66195;PMS7003;75911;45.168;5.736;2024-03-02T03:46:35;6.33;6.33;5.33
66195;PMS7003;75911;45.168;5.736;2024-03-02T03:49:01;7.67;7.00;5.00
66195;PMS7003;75911;45.168;5.736;2024-03-02T03:51:26;7.67;6.33;5.00
66195;PMS7003;75911;45.168;5.736;2024-03-02T03:53:51;7.00;7.00;5.00
66195;PMS7003;75911;45.168;5.736;2024-03-02T03:56:16;7.00;7.00;6.00
66195;PMS7003;75911;45.168;5.736;2024-03-02T03:58:42;9.00;7.00;6.00
66195;PMS7003;75911;45.168;5.736;2024-03-02T04:01:07;6.00;6.00;5.00
66195;PMS7003;75911;45.168;5.736;2024-03-02T04:03:33;7.00;7.00;5.67
66195;PMS7003;75911;45.168;5.736;2024-03-02T04:05:58;8.50;7.00;6.00
66195;PMS7003;75911;45.168;5.736;2024-03-02T04:08:24;7.50;6.75;5.25
66195;PMS7003;75911;45.168;5.736;2024-03-02T04:10:49;4.67;3.67;3.00
66195;PMS7003;75911;45.168;5.736;2024-03-02T04:13:14;6.67;5.00;5.00
66195;PMS7003;75911;45.168;5.736;2024-03-02T04:15:39;7.33;6.00;5.00
66195;PMS7003;75911;45.168;5.736;2024-03-02T04:18:08;7.33;7.00;5.00
66195;PMS7003;75911;45.168;5.736;2024-03-02T04:20:33;5.00;5.00;4.67
66195;PMS7003;75911;45.168;5.736;2024-03-02T04:22:58;6.67;6.67;5.00
66195;PMS7003;75911;45.168;5.736;2024-03-02T04:25:24;9.00;7.00;5.33
66195;PMS7003;75911;45.168;5.736;2024-03-02T04:27:49;8.33;7.67;6.00
66195;PMS7003;75911;45.168;5.736;2024-03-02T04:30:14;7.00;7.00;6.00
66195;PMS7003;75911;45.168;5.736;2024-03-02T04:32:40;6.33;6.33;6.00
66195;PMS7003;75911;45.168;5.736;2024-03-02T04:35:05;7.00;7.00;5.00
66195;PMS7003;75911;45.168;5.736;2024-03-02T04:37:34;6.00;4.33;3.33
66195;PMS7003;75911;45.168;5.736;2024-03-02T04:39:59;7.67;6.67;5.67
66195;PMS7003;75911;45.168;5.736;2024-03-02T04:42:25;9.00;7.00;6.00
66195;PMS7003;75911;45.168;5.736;2024-03-02T04:44:50;8.33;7.33;5.67
66195;PMS7003;75911;45.168;5.736;2024-03-02T04:47:16;7.33;7.33;5.33
66195;PMS7003;75911;45.168;5.736;2024-03-02T04:49:41;6.00;5.67;5.00
66195;PMS7003;75911;45.168;5.736;2024-03-02T04:52:06;6.33;6.00;5.00
66195;PMS7003;75911;45.168;5.736;2024-03-02T04:54:32;6.00;6.00;6.00
66195;PMS7003;75911;45.168;5.736;2024-03-02T04:56:57;7.00;7.00;6.00
66195;PMS7003;75911;45.168;5.736;2024-03-02T04:59:23;6.33;6.33;5.33
66195;PMS7003;75911;45.168;5.736;2024-03-02T05:01:48;7.00;6.25;6.00
66195;PMS7003;75911;45.168;5.736;2024-03-02T05:04:14;5.33;5.33;4.33
66195;PMS7003;75911;45.168;5.736;2024-03-02T05:06:40;7.00;6.00;5.00
66195;PMS7003;75911;45.168;5.736;2024-03-02T05:09:08;7.67;6.67;5.00
66195;PMS7003;75911;45.168;5.736;2024-03-02T05:11:34;6.00;6.00;5.00
66195;PMS7003;75911;45.168;5.736;2024-03-02T05:14:03;8.33;7.67;6.00
66195;PMS7003;75911;45.168;5.736;2024-03-02T05:16:29;6.00;6.00;5.00
66195;PMS7003;75911;45.168;5.736;2024-03-02T05:19:03;8.33;6.00;5.00
66195;PMS7003;75911;45.168;5.736;2024-03-02T05:21:31;8.67;8.00;6.00
66195;PMS7003;75911;45.168;5.736;2024-03-02T05:23:56;6.00;6.00;5.00
66195;PMS7003;75911;45.168;5.736;2024-03-02T05:26:21;7.67;6.67;6.00
66195;PMS7003;75911;45.168;5.736;2024-03-02T05:28:46;7.33;7.00;6.00
66195;PMS7003;75911;45.168;5.736;2024-03-02T05:31:13;6.67;5.67;5.00
66195;PMS7003;75911;45.168;5.736;2024-03-02T05:33:40;7.00;6.33;5.00
66195;PMS7003;75911;45.168;5.736;2024-03-02T05:36:06;7.25;7.25;6.00
66195;PMS7003;75911;45.168;5.736;2024-03-02T05:38:32;7.67;7.00;6.00
66195;PMS7003;75911;45.168;5.736;2024-03-02T05:40:59;7.25;7.25;6.00
66195;PMS7003;75911;45.168;5.736;2024-03-02T05:43:25;9.50;8.50;6.50
66195;PMS7003;75911;45.168;5.736;2024-03-02T05:45:50;5.33;5.33;5.00
66195;PMS7003;75911;45.168;5.736;2024-03-02T05:48:15;8.67;6.67;5.67
66195;PMS7003;75911;45.168;5.736;2024-03-02T05:50:40;6.33;6.33;5.33
66195;PMS7003;75911;45.168;5.736;2024-03-02T05:53:06;5.33;5.33;5.00
66195;PMS7003;75911;45.168;5.736;2024-03-02T05:55:31;7.00;7.00;6.00
66195;PMS7003;75911;45.168;5.736;2024-03-02T05:57:56;7.00;6.33;5.00
66195;PMS7003;75911;45.168;5.736;2024-03-02T06:00:31;8.00;7.00;5.67
66195;PMS7003;75911;45.168;5.736;2024-03-02T06:02:57;5.00;5.00;4.00
66195;PMS7003;75911;45.168;5.736;2024-03-02T06:05:23;7.67;6.00;5.00
66195;PMS7003;75911;45.168;5.736;2024-03-02T06:07:48;7.00;7.00;5.00
66195;PMS7003;75911;45.168;5.736;2024-03-02T06:10:13;6.67;5.33;4.67
66195;PMS7003;75911;45.168;5.736;2024-03-02T06:12:39;5.00;5.00;4.33
66195;PMS7003;75911;45.168;5.736;2024-03-02T06:15:05;6.25;6.25;5.25
66195;PMS7003;75911;45.168;5.736;2024-03-02T06:17:30;4.67;4.00;3.67
66195;PMS7003;75911;45.168;5.736;2024-03-02T06:19:56;7.00;7.00;5.50
66195;PMS7003;75911;45.168;5.736;2024-03-02T06:22:21;6.67;5.33;4.33
66195;PMS7003;75911;45.168;5.736;2024-03-02T06:24:49;7.00;6.00;5.00
66195;PMS7003;75911;45.168;5.736;2024-03-02T06:27:15;7.00;6.00;5.33
66195;PMS7003;75911;45.168;5.736;2024-03-02T06:29:40;5.33;4.67;4.33
66195;PMS7003;75911;45.168;5.736;2024-03-02T06:32:06;7.00;6.00;5.00
66195;PMS7003;75911;45.168;5.736;2024-03-02T06:34:32;2.00;1.33;1.00
66195;PMS7003;75911;45.168;5.736;2024-03-02T06:36:57;6.00;6.00;5.00
66195;PMS7003;75911;45.168;5.736;2024-03-02T06:39:23;7.00;5.67;5.33
66195;PMS7003;75911;45.168;5.736;2024-03-02T06:41:48;6.00;6.00;4.00
66195;PMS7003;75911;45.168;5.736;2024-03-02T06:44:13;6.00;6.00;5.00
66195;PMS7003;75911;45.168;5.736;2024-03-02T06:46:39;6.00;5.00;4.33
66195;PMS7003;75911;45.168;5.736;2024-03-02T06:49:04;6.00;6.00;5.00
66195;PMS7003;75911;45.168;5.736;2024-03-02T06:51:30;5.00;5.00;4.00
66195;PMS7003;75911;45.168;5.736;2024-03-02T06:53:55;7.00;4.67;4.00
66195;PMS7003;75911;45.168;5.736;2024-03-02T06:56:20;6.00;5.33;5.00
66195;PMS7003;75911;45.168;5.736;2024-03-02T06:58:46;6.33;6.00;5.00
66195;PMS7003;75911;45.168;5.736;2024-03-02T07:01:11;4.33;4.33;4.00
66195;PMS7003;75911;45.168;5.736;2024-03-02T07:03:37;5.00;5.00;4.33
66195;PMS7003;75911;45.168;5.736;2024-03-02T07:06:04;5.67;5.67;4.00
66195;PMS7003;75911;45.168;5.736;2024-03-02T07:08:30;6.67;6.67;5.67
66195;PMS7003;75911;45.168;5.736;2024-03-02T07:10:55;5.00;5.00;4.67
66195;PMS7003;75911;45.168;5.736;2024-03-02T07:13:21;6.00;6.00;4.67
66195;PMS7003;75911;45.168;5.736;2024-03-02T07:15:47;4.33;4.00;4.00
66195;PMS7003;75911;45.168;5.736;2024-03-02T07:18:35;8.33;6.33;5.00
66195;PMS7003;75911;45.168;5.736;2024-03-02T07:21:06;4.67;4.67;4.00
66195;PMS7003;75911;45.168;5.736;2024-03-02T07:23:34;8.33;6.67;6.00
66195;PMS7003;75911;45.168;5.736;2024-03-02T07:26:00;6.00;6.00;5.00
66195;PMS7003;75911;45.168;5.736;2024-03-02T07:28:26;5.33;5.33;5.00
66195;PMS7003;75911;45.168;5.736;2024-03-02T07:31:02;6.00;4.00;3.00
66195;PMS7003;75911;45.168;5.736;2024-03-02T07:33:29;4.33;4.33;3.33
66195;PMS7003;75911;45.168;5.736;2024-03-02T07:35:55;8.00;6.33;5.00
66195;PMS7003;75911;45.168;5.736;2024-03-02T07:38:21;5.67;5.67;4.33
66195;PMS7003;75911;45.168;5.736;2024-03-02T07:40:47;5.00;5.00;5.00
66195;PMS7003;75911;45.168;5.736;2024-03-02T07:43:16;6.00;6.00;5.00
66195;PMS7003;75911;45.168;5.736;2024-03-02T07:45:42;6.00;6.00;5.25
66195;PMS7003;75911;45.168;5.736;2024-03-02T07:48:07;5.25;4.50;4.00
66195;PMS7003;75911;45.168;5.736;2024-03-02T07:50:32;7.00;6.75;5.50
66195;PMS7003;75911;45.168;5.736;2024-03-02T07:53:00;5.00;5.00;4.00
66195;PMS7003;75911;45.168;5.736;2024-03-02T07:55:29;5.33;5.33;4.67
66195;PMS7003;75911;45.168;5.736;2024-03-02T07:57:56;7.00;5.33;4.33
66195;PMS7003;75911;45.168;5.736;2024-03-02T08:00:22;7.00;7.00;5.33
66195;PMS7003;75911;45.168;5.736;2024-03-02T08:02:48;8.00;7.00;6.00
66195;PMS7003;75911;45.168;5.736;2024-03-02T08:05:13;8.00;6.00;4.33
66195;PMS7003;75911;45.168;5.736;2024-03-02T08:07:39;7.00;7.00;5.00
66195;PMS7003;75911;45.168;5.736;2024-03-02T08:10:06;6.00;5.33;5.00
66195;PMS7003;75911;45.168;5.736;2024-03-02T08:12:32;10.00;7.00;6.00
66195;PMS7003;75911;45.168;5.736;2024-03-02T08:14:57;6.67;6.67;5.67
66195;PMS7003;75911;45.168;5.736;2024-03-02T08:17:22;6.00;5.33;4.00
66195;PMS7003;75911;45.168;5.736;2024-03-02T08:19:48;6.00;6.00;5.67
66195;PMS7003;75911;45.168;5.736;2024-03-02T08:22:14;6.33;6.00;5.00
66195;PMS7003;75911;45.168;5.736;2024-03-02T08:24:40;7.33;6.00;5.33
66195;PMS7003;75911;45.168;5.736;2024-03-02T08:27:06;4.33;4.33;4.00
66195;PMS7003;75911;45.168;5.736;2024-03-02T08:29:31;5.00;5.00;5.00
66195;PMS7003;75911;45.168;5.736;2024-03-02T08:31:57;6.00;6.00;5.33
66195;PMS7003;75911;45.168;5.736;2024-03-02T08:34:22;7.00;6.75;6.00
66195;PMS7003;75911;45.168;5.736;2024-03-02T08:36:47;4.00;3.33;3.00
66195;PMS7003;75911;45.168;5.736;2024-03-02T08:39:13;5.00;4.67;4.00
66195;PMS7003;75911;45.168;5.736;2024-03-02T08:41:41;6.75;6.75;5.50
66195;PMS7003;75911;45.168;5.736;2024-03-02T08:44:09;6.00;6.00;5.00
66195;PMS7003;75911;45.168;5.736;2024-03-02T08:46:34;5.33;4.67;3.33
66195;PMS7003;75911;45.168;5.736;2024-03-02T08:49:00;6.00;6.00;5.00
66195;PMS7003;75911;45.168;5.736;2024-03-02T08:51:25;5.67;4.33;4.00
66195;PMS7003;75911;45.168;5.736;2024-03-02T08:53:50;5.00;4.00;4.00
66195;PMS7003;75911;45.168;5.736;2024-03-02T08:56:16;7.00;5.00;4.67
66195;PMS7003;75911;45.168;5.736;2024-03-02T08:58:41;5.00;5.00;4.00
66195;PMS7003;75911;45.168;5.736;2024-03-02T09:01:07;6.33;5.67;4.33
66195;PMS7003;75911;45.168;5.736;2024-03-02T09:03:33;5.00;4.00;4.00
66195;PMS7003;75911;45.168;5.736;2024-03-02T09:06:00;5.00;5.00;3.67
66195;PMS7003;75911;45.168;5.736;2024-03-02T09:08:25;5.00;5.00;4.33
66195;PMS7003;75911;45.168;5.736;2024-03-02T09:10:51;5.00;4.00;3.00
66195;PMS7003;75911;45.168;5.736;2024-03-02T09:13:17;7.00;5.00;4.67
66195;PMS7003;75911;45.168;5.736;2024-03-02T09:15:42;6.67;5.67;5.00
66195;PMS7003;75911;45.168;5.736;2024-03-02T09:18:09;6.00;5.33;5.00
66195;PMS7003;75911;45.168;5.736;2024-03-02T09:20:34;6.00;5.00;5.00
66195;PMS7003;75911;45.168;5.736;2024-03-02T09:23:00;5.67;5.67;4.33
66195;PMS7003;75911;45.168;5.736;2024-03-02T09:25:25;5.33;5.33;4.33
66195;PMS7003;75911;45.168;5.736;2024-03-02T09:27:51;4.67;4.00;3.33
66195;PMS7003;75911;45.168;5.736;2024-03-02T09:30:16;5.00;4.33;4.00
66195;PMS7003;75911;45.168;5.736;2024-03-02T09:32:41;6.00;5.00;4.00
66195;PMS7003;75911;45.168;5.736;2024-03-02T09:35:07;4.33;4.33;3.33
66195;PMS7003;75911;45.168;5.736;2024-03-02T09:37:33;6.33;4.00;4.00
66195;PMS7003;75911;45.168;5.736;2024-03-02T09:39:59;4.67;4.00;3.67
66195;PMS7003;75911;45.168;5.736;2024-03-02T09:42:24;5.33;4.00;4.00
66195;PMS7003;75911;45.168;5.736;2024-03-02T09:44:50;5.00;4.00;3.00
66195;PMS7003;75911;45.168;5.736;2024-03-02T09:47:17;5.00;5.00;4.00
66195;PMS7003;75911;45.168;5.736;2024-03-02T09:49:42;5.00;5.00;4.00
66195;PMS7003;75911;45.168;5.736;2024-03-02T09:52:08;4.00;4.00;3.00
66195;PMS7003;75911;45.168;5.736;2024-03-02T09:54:35;4.00;4.00;3.00
66195;PMS7003;75911;45.168;5.736;2024-03-02T09:57:01;4.67;4.00;3.00
66195;PMS7003;75911;45.168;5.736;2024-03-02T09:59:27;5.33;4.33;3.67
66195;PMS7003;75911;45.168;5.736;2024-03-02T10:04:26;4.67;4.00;4.00
66195;PMS7003;75911;45.168;5.736;2024-03-02T10:09:41;4.00;3.00;2.67
66195;PMS7003;75911;45.168;5.736;2024-03-02T10:12:07;5.00;5.00;4.00
66195;PMS7003;75911;45.168;5.736;2024-03-02T10:14:34;7.00;6.00;3.67
66195;PMS7003;75911;45.168;5.736;2024-03-02T10:17:03;3.67;3.67;3.00
66195;PMS7003;75911;45.168;5.736;2024-03-02T10:19:29;8.33;5.00;4.00
66195;PMS7003;75911;45.168;5.736;2024-03-02T10:21:59;5.00;4.67;4.00
66195;PMS7003;75911;45.168;5.736;2024-03-02T10:24:25;6.00;6.00;5.00
66195;PMS7003;75911;45.168;5.736;2024-03-02T10:26:51;8.33;6.33;5.00
66195;PMS7003;75911;45.168;5.736;2024-03-02T10:29:17;7.00;6.00;5.00
66195;PMS7003;75911;45.168;5.736;2024-03-02T10:31:43;1.00;1.00;1.00
66195;PMS7003;75911;45.168;5.736;2024-03-02T10:34:11;8.50;8.00;6.00
66195;PMS7003;75911;45.168;5.736;2024-03-02T10:36:38;7.67;7.67;7.00
66195;PMS7003;75911;45.168;5.736;2024-03-02T10:39:06;10.00;7.25;6.00
66195;PMS7003;75911;45.168;5.736;2024-03-02T10:41:33;8.50;7.00;6.25
66195;PMS7003;75911;45.168;5.736;2024-03-02T10:44:03;8.00;8.00;6.50
66195;PMS7003;75911;45.168;5.736;2024-03-02T10:46:30;8.25;7.00;5.75
66195;PMS7003;75911;45.168;5.736;2024-03-02T10:48:57;9.50;9.50;7.00
66195;PMS7003;75911;45.168;5.736;2024-03-02T10:51:24;11.00;8.50;7.00
66195;PMS7003;75911;45.168;5.736;2024-03-02T10:53:51;10.00;8.00;7.00
66195;PMS7003;75911;45.168;5.736;2024-03-02T10:56:19;11.00;9.25;8.00
66195;PMS7003;75911;45.168;5.736;2024-03-02T10:58:51;9.75;8.00;7.25
66195;PMS7003;75911;45.168;5.736;2024-03-02T11:01:24;7.75;7.50;6.75
66195;PMS7003;75911;45.168;5.736;2024-03-02T11:03:50;8.75;8.75;6.75
66195;PMS7003;75911;45.168;5.736;2024-03-02T11:06:17;9.50;8.75;7.00
66195;PMS7003;75911;45.168;5.736;2024-03-02T11:08:42;11.00;9.25;8.00
66195;PMS7003;75911;45.168;5.736;2024-03-02T11:11:15;14.50;10.25;8.00
66195;PMS7003;75911;45.168;5.736;2024-03-02T11:13:46;21.00;18.75;11.50
66195;PMS7003;75911;45.168;5.736;2024-03-02T11:16:18;30.00;25.75;16.25
66195;PMS7003;75911;45.168;5.736;2024-03-02T11:19:03;27.00;26.75;16.25
66195;PMS7003;75911;45.168;5.736;2024-03-02T11:21:36;34.25;31.00;20.25
66195;PMS7003;75911;45.168;5.736;2024-03-02T11:26:47;38.00;32.50;21.25
66195;PMS7003;75911;45.168;5.736;2024-03-02T11:32:04;55.50;41.25;26.25
66195;PMS7003;75911;45.168;5.736;2024-03-02T11:34:34;54.25;41.75;26.25
66195;PMS7003;75911;45.168;5.736;2024-03-02T11:37:01;47.00;36.25;24.00
66195;PMS7003;75911;45.168;5.736;2024-03-02T11:39:27;47.50;36.25;23.50
66195;PMS7003;75911;45.168;5.736;2024-03-02T11:41:53;43.25;32.25;22.00
66195;PMS7003;75911;45.168;5.736;2024-03-02T11:44:20;38.00;32.00;20.00
66195;PMS7003;75911;45.168;5.736;2024-03-02T11:46:46;27.50;23.00;13.75
66195;PMS7003;75911;45.168;5.736;2024-03-02T11:49:26;25.50;21.75;15.50
66195;PMS7003;75911;45.168;5.736;2024-03-02T11:52:03;23.25;22.25;14.00
66195;PMS7003;75911;45.168;5.736;2024-03-02T11:54:30;15.00;14.25;12.25
66195;PMS7003;75911;45.168;5.736;2024-03-02T11:56:58;22.00;17.00;12.00
66195;PMS7003;75911;45.168;5.736;2024-03-02T11:59:27;15.50;14.25;11.00
66195;PMS7003;75911;45.168;5.736;2024-03-02T12:01:54;17.75;16.50;12.75
66195;PMS7003;75911;45.168;5.736;2024-03-02T12:04:20;15.50;15.25;12.00
66195;PMS7003;75911;45.168;5.736;2024-03-02T12:06:49;11.75;11.00;9.00
66195;PMS7003;75911;45.168;5.736;2024-03-02T12:09:20;15.75;14.75;10.25
66195;PMS7003;75911;45.168;5.736;2024-03-02T12:11:46;18.50;16.50;13.00
66195;PMS7003;75911;45.168;5.736;2024-03-02T12:14:11;18.25;16.25;11.25
66195;PMS7003;75911;45.168;5.736;2024-03-02T12:16:46;15.00;14.00;11.00
66195;PMS7003;75911;45.168;5.736;2024-03-02T12:19:12;15.50;11.75;8.00
66195;PMS7003;75911;45.168;5.736;2024-03-02T12:21:38;16.25;13.75;11.00
66195;PMS7003;75911;45.168;5.736;2024-03-02T12:24:03;15.25;15.25;11.00
66195;PMS7003;75911;45.168;5.736;2024-03-02T12:26:29;19.25;18.50;13.25
66195;PMS7003;75911;45.168;5.736;2024-03-02T12:28:54;15.25;15.25;12.25
66195;PMS7003;75911;45.168;5.736;2024-03-02T12:31:20;23.00;20.00;16.25
66195;PMS7003;75911;45.168;5.736;2024-03-02T12:33:46;21.00;19.25;15.25
66195;PMS7003;75911;45.168;5.736;2024-03-02T12:36:13;26.25;24.00;18.25
66195;PMS7003;75911;45.168;5.736;2024-03-02T12:38:42;24.00;23.25;19.75
66195;PMS7003;75911;45.168;5.736;2024-03-02T12:41:09;28.25;28.00;21.75
66195;PMS7003;75911;45.168;5.736;2024-03-02T12:43:34;31.25;29.75;21.50
66195;PMS7003;75911;45.168;5.736;2024-03-02T12:45:59;36.25;31.25;23.50
66195;PMS7003;75911;45.168;5.736;2024-03-02T12:48:25;33.25;30.25;22.25
66195;PMS7003;75911;45.168;5.736;2024-03-02T12:50:50;30.50;28.50;22.50
66195;PMS7003;75911;45.168;5.736;2024-03-02T12:53:16;27.50;24.75;19.50
66195;PMS7003;75911;45.168;5.736;2024-03-02T12:55:41;27.50;26.75;20.25
66195;PMS7003;75911;45.168;5.736;2024-03-02T12:58:15;24.75;22.50;17.00
66195;PMS7003;75911;45.168;5.736;2024-03-02T13:00:42;20.00;20.00;17.50
66195;PMS7003;75911;45.168;5.736;2024-03-02T13:03:07;21.75;19.75;15.75
66195;PMS7003;75911;45.168;5.736;2024-03-02T13:05:32;21.50;20.25;16.50
66195;PMS7003;75911;45.168;5.736;2024-03-02T13:07:58;19.25;19.25;15.75
66195;PMS7003;75911;45.168;5.736;2024-03-02T13:10:24;22.25;20.75;17.00
66195;PMS7003;75911;45.168;5.736;2024-03-02T13:12:50;45.00;37.00;26.75
66195;PMS7003;75911;45.168;5.736;2024-03-02T13:15:15;50.00;40.25;28.25
66195;PMS7003;75911;45.168;5.736;2024-03-02T13:17:41;42.25;35.25;27.00
66195;PMS7003;75911;45.168;5.736;2024-03-02T13:20:06;16.00;14.50;11.75
66195;PMS7003;75911;45.168;5.736;2024-03-02T13:22:35;10.25;10.00;9.00
66195;PMS7003;75911;45.168;5.736;2024-03-02T13:25:01;9.75;8.75;8.00
66195;PMS7003;75911;45.168;5.736;2024-03-02T13:27:30;8.00;6.75;5.75
66195;PMS7003;75911;45.168;5.736;2024-03-02T13:29:59;24.50;22.75;20.00
66195;PMS7003;75911;45.168;5.736;2024-03-02T13:32:26;34.25;30.25;23.00
66195;PMS7003;75911;45.168;5.736;2024-03-02T13:34:51;40.25;35.50;25.25
66195;PMS7003;75911;45.168;5.736;2024-03-02T13:37:17;38.75;34.75;26.50
66195;PMS7003;75911;45.168;5.736;2024-03-02T13:39:42;43.75;35.75;26.25
66195;PMS7003;75911;45.168;5.736;2024-03-02T13:42:08;40.50;33.50;24.25
66195;PMS7003;75911;45.168;5.736;2024-03-02T13:44:34;24.75;24.00;18.00
66195;PMS7003;75911;45.168;5.736;2024-03-02T13:47:00;22.25;20.75;17.75
66195;PMS7003;75911;45.168;5.736;2024-03-02T13:49:26;23.00;20.25;16.75
66195;PMS7003;75911;45.168;5.736;2024-03-02T13:52:07;20.50;20.50;16.75
66195;PMS7003;75911;45.168;5.736;2024-03-02T13:54:40;19.75;18.75;16.00
66195;PMS7003;75911;45.168;5.736;2024-03-02T13:57:07;19.50;19.00;16.25
66195;PMS7003;75911;45.168;5.736;2024-03-02T13:59:33;20.75;18.25;15.00
66195;PMS7003;75911;45.168;5.736;2024-03-02T14:02:02;17.25;17.25;14.00
66195;PMS7003;75911;45.168;5.736;2024-03-02T14:04:31;17.50;17.25;14.25
66195;PMS7003;75911;45.168;5.736;2024-03-02T14:07:00;17.50;16.00;12.25
66195;PMS7003;75911;45.168;5.736;2024-03-02T14:09:26;17.50;15.50;13.00
66195;PMS7003;75911;45.168;5.736;2024-03-02T14:11:52;15.00;14.00;12.00
66195;PMS7003;75911;45.168;5.736;2024-03-02T14:14:18;14.00;13.50;11.50
66195;PMS7003;75911;45.168;5.736;2024-03-02T14:16:44;14.00;13.50;10.50
66195;PMS7003;75911;45.168;5.736;2024-03-02T14:19:10;13.00;11.75;9.25
66195;PMS7003;75911;45.168;5.736;2024-03-02T14:21:36;13.00;12.00;9.75
66195;PMS7003;75911;45.168;5.736;2024-03-02T14:24:02;13.50;12.00;11.00